Kezdőlap
METAR-TAF:

METAR-TAF

Repülőterek :

Szatmárnémeti, Románia

földrajzi szélesség: 47-48N, földrajzi hosszúság: 022-53E, magasság: 123 m

Jelenlegi meteorológiai megfigyelések

A jelentés 15 perccel ezelõtt készült, 19:30 UTC
Kelet-északkeleti szél 6 kt
Hőmérséklet 0°C
Páratartalom 64%
Légköri nyomás 1032 hPa
Látótávolság 10 km, vagy több
enyhe havazás

METAR: LRSM 161930Z AUTO 06006KT 9999 -SN NCD 00/M06 Q1032

Idő: 21:45 (19:45 UTC)

Előrejelzés

A jelentés 5 órával és 45 perccel ezelõtt készült, 14:00 UTC
Az előrejelzés 16-én 15 óra UTC és 16-én 24 óra UTC között érvényes
Kelet-északkeleti szél 10 kt
Látótávolság 10 km, vagy több
felhőtlen 1500 m magasságban, és nincs gomolyfelhõ

TAF: LRSM 161400Z 1615/1624 06010KT CAVOK

Meteorológiai megfigyelések és előrejelzések több, mint 4000 repülőtéren (METAR és TAF jelentéseket).

A térképen piros és sárga pontok jelzik az elérhető meteorológiai állomásokat.

Mozgassa az egeret a pont fölött, hogy megjelenjen az állomás neve.

Azután kattintson az időjárási megfigyelések és előrejelzések megtekintéséhez.

A térkép megváltoztatása: kattintson a fekete keresztel jelölt zöld gombra ráközelítéshez, a vonallal jelölt zöld gombra távolításhoz, vagy a zöld nyilakra a szomszédos térképek eléréséhez.


METAR-TAF: